Time;durP1;ratioP1;P1;durP2;ratioP2;P2;SDS_P1;SDS_P2;PMS_P1;PMS_P2;Temp;Humidity;BMP_temperature;BMP_pressure;BME280_temperature;BME280_humidity;BME280_pressure;Samples;Min_cycle;Max_cycle;Signal;HPM_P1;HPM_P2
2022/01/20 00:03:20;;;;;;;9.05;4.50;;;;;;;2.86;100.00;99352.03;5025466;28;20017;-66
2022/01/20 00:08:31;;;;;;;9.15;4.57;;;;;;;2.91;100.00;99352.97;5027949;28;20064;-66
2022/01/20 00:27:22;;;;;;;5.88;3.50;;;;;;;2.94;100.00;99383.41;5027258;28;20237;-66
2022/01/20 00:32:48;;;;;;;8.55;4.05;;;;;;;2.90;100.00;99382.44;5028007;28;20021;-66
2022/01/20 00:35:30;;;;;;;7.55;3.70;;;;;;;2.90;100.00;99387.63;5025823;28;20329;-66
2022/01/20 00:37:55;;;;;;;10.88;4.15;;;;;;;2.84;100.00;99384.91;5026554;28;20025;-66
2022/01/20 00:40:23;;;;;;;9.48;4.38;;;;;;;2.79;100.00;99383.94;5027608;28;20024;-66
2022/01/20 00:42:49;;;;;;;5.57;3.13;;;;;;;2.83;100.00;99383.16;5027480;28;20013;-66
2022/01/20 00:45:15;;;;;;;8.85;4.20;;;;;;;2.80;100.00;99385.69;5027145;28;20056;-66
2022/01/20 00:47:41;;;;;;;6.15;3.05;;;;;;;2.79;100.00;99383.94;5026186;28;20083;-67
2022/01/20 00:50:10;;;;;;;5.60;3.33;;;;;;;2.79;100.00;99386.53;5027482;28;20029;-67
2022/01/20 00:52:36;;;;;;;6.70;3.25;;;;;;;2.79;100.00;99383.94;5027139;28;20310;-67
2022/01/20 00:55:01;;;;;;;6.80;3.10;;;;;;;2.75;100.00;99384.69;5027136;28;20036;-67
2022/01/20 00:57:27;;;;;;;6.40;3.50;;;;;;;2.69;100.00;99387.13;5027646;28;20017;-67
2022/01/20 00:59:52;;;;;;;4.60;2.70;;;;;;;2.72;100.00;99383.75;5027131;28;20030;-67
2022/01/20 01:02:18;;;;;;;5.88;3.33;;;;;;;2.73;100.00;99381.19;5027321;28;20037;-67
2022/01/20 01:04:43;;;;;;;5.65;3.30;;;;;;;2.69;100.00;99387.13;5027040;28;20053;-67
2022/01/20 01:09:34;;;;;;;5.85;3.67;;;;;;;2.66;100.00;99386.19;5027340;28;20060;-67
2022/01/20 01:12:04;;;;;;;6.13;2.95;;;;;;;2.72;100.00;99389.81;5026616;28;20037;-67
2022/01/20 01:14:32;;;;;;;6.13;3.10;;;;;;;2.70;100.00;99382.81;5027113;28;20013;-67
2022/01/20 01:24:42;;;;;;;7.22;3.17;;;;;;;2.93;100.00;99387.72;5027233;28;20072;-67
2022/01/20 01:27:11;;;;;;;7.00;3.35;;;;;;;2.88;100.00;99383.25;5023400;28;20049;-67
2022/01/20 01:32:04;;;;;;;9.85;3.45;;;;;;;2.89;100.00;99380.69;5027111;28;20097;-67
2022/01/20 01:34:31;;;;;;;6.85;3.35;;;;;;;2.94;100.00;99389.44;5025775;28;20029;-67
2022/01/20 01:39:24;;;;;;;7.15;3.78;;;;;;;2.97;100.00;99389.53;5026805;28;20057;-67
2022/01/20 01:41:50;;;;;;;6.68;3.75;;;;;;;2.96;100.00;99387.78;5026452;28;20217;-67
2022/01/20 01:44:22;;;;;;;9.40;4.85;;;;;;;2.94;100.00;99389.44;5026805;28;20020;-67
2022/01/20 01:46:48;;;;;;;8.85;4.57;;;;;;;3.00;100.00;99387.00;5026728;28;20048;-67
2022/01/20 01:49:14;;;;;;;9.13;5.15;;;;;;;3.02;100.00;99392.22;5026260;28;20026;-67
2022/01/20 01:51:39;;;;;;;9.25;4.57;;;;;;;3.00;100.00;99391.34;5024900;28;20060;-67
2022/01/20 01:54:05;;;;;;;9.23;4.93;;;;;;;3.05;100.00;99387.09;5025852;28;20379;-67
2022/01/20 01:56:30;;;;;;;9.07;4.43;;;;;;;3.00;100.00;99389.59;5026165;28;20022;-67
2022/01/20 01:58:56;;;;;;;7.35;4.05;;;;;;;3.05;100.00;99397.50;5026250;28;20256;-67
2022/01/20 02:01:22;;;;;;;8.75;4.10;;;;;;;3.05;100.00;99382.78;5026421;28;20025;-67
2022/01/20 02:03:57;;;;;;;9.65;4.43;;;;;;;3.05;100.00;99384.50;5025914;28;20221;-67
2022/01/20 02:19:49;;;;;;;12.50;5.53;;;;;;;3.27;100.00;99387.59;5026324;28;20020;-67
2022/01/20 02:22:14;;;;;;;13.90;6.47;;;;;;;3.28;100.00;99391.94;5025831;28;20018;-66
2022/01/20 02:24:40;;;;;;;13.85;6.03;;;;;;;3.29;100.00;99391.09;5026008;28;20093;-66
2022/01/20 02:27:05;;;;;;;13.77;6.03;;;;;;;3.30;100.00;99390.28;5022680;28;20109;-66
2022/01/20 02:29:31;;;;;;;13.73;7.03;;;;;;;3.37;100.00;99397.34;5026066;28;20017;-66
2022/01/20 02:32:01;;;;;;;15.38;7.03;;;;;;;3.39;100.00;99393.03;5025630;28;20245;-66
2022/01/20 02:34:29;;;;;;;15.27;7.80;;;;;;;3.41;100.00;99377.47;5026069;28;20052;-66
2022/01/20 02:36:57;;;;;;;12.95;6.68;;;;;;;3.41;100.00;99378.34;5026387;28;20026;-66
2022/01/20 02:44:53;;;;;;;16.42;6.88;;;;;;;3.43;100.00;99366.25;5024497;28;20068;-66
2022/01/20 02:47:21;;;;;;;12.70;7.30;;;;;;;3.46;100.00;99368.03;5025459;28;20335;-66
2022/01/20 02:49:47;;;;;;;17.48;9.10;;;;;;;3.47;100.00;99367.19;5024877;28;20049;-66
2022/01/20 02:52:13;;;;;;;17.77;8.63;;;;;;;3.48;100.00;99368.97;5025189;28;20021;-66
2022/01/20 02:54:38;;;;;;;16.48;8.88;;;;;;;3.49;100.00;99370.72;5025871;28;20045;-66
2022/01/20 02:57:05;;;;;;;11.73;5.82;;;;;;;3.48;100.00;99358.56;5025609;28;20028;-66
2022/01/20 02:59:32;;;;;;;12.40;6.30;;;;;;;3.47;100.00;99362.88;5025551;28;20092;-66
2022/01/20 03:01:57;;;;;;;11.07;5.65;;;;;;;3.51;100.00;99369.88;5025858;28;20061;-66
2022/01/20 03:04:26;;;;;;;12.75;6.10;;;;;;;3.55;100.00;99361.28;5025312;28;20022;-66
2022/01/20 03:06:51;;;;;;;13.20;6.50;;;;;;;3.59;100.00;99357.91;5025176;28;20037;-66
2022/01/20 03:09:17;;;;;;;17.33;6.88;;;;;;;3.57;100.00;99354.38;5025460;28;20081;-66
2022/01/20 03:11:42;;;;;;;14.45;7.20;;;;;;;3.60;100.00;99359.66;5025392;28;20073;-66
2022/01/20 03:14:07;;;;;;;15.90;7.40;;;;;;;3.58;100.00;99363.94;5023222;28;20049;-66
2022/01/20 03:16:33;;;;;;;12.38;5.63;;;;;;;3.61;100.00;99371.81;5025633;28;20026;-66
2022/01/20 03:18:58;;;;;;;17.38;7.22;;;;;;;3.63;100.00;99372.72;5025873;28;20068;-66
2022/01/20 03:21:24;;;;;;;14.68;7.13;;;;;;;3.59;100.00;99363.13;5025490;28;20044;-67
2022/01/20 03:23:49;;;;;;;13.88;7.30;;;;;;;3.64;100.00;99361.47;5025056;28;20326;-67
2022/01/20 03:26:15;;;;;;;15.57;8.38;;;;;;;3.60;100.00;99364.84;5025583;28;20086;-67
2022/01/20 03:28:40;;;;;;;15.88;8.38;;;;;;;3.65;100.00;99368.44;5025325;28;20065;-66
2022/01/20 03:31:06;;;;;;;22.15;9.93;;;;;;;3.66;100.00;99364.97;5025508;28;20105;-66
2022/01/20 03:33:32;;;;;;;18.08;9.63;;;;;;;3.68;100.00;99368.50;5025510;28;20022;-66
2022/01/20 03:36:03;;;;;;;21.55;9.13;;;;;;;3.73;100.00;99360.75;5025318;28;20036;-66
2022/01/20 03:38:28;;;;;;;21.50;9.57;;;;;;;3.75;100.00;99354.75;5024188;28;20018;-66
2022/01/20 03:40:54;;;;;;;20.63;9.38;;;;;;;3.80;100.00;99358.28;5024849;28;20025;-66
2022/01/20 03:43:21;;;;;;;23.42;10.48;;;;;;;3.76;100.00;99366.91;5027400;28;20018;-66
2022/01/20 03:45:50;;;;;;;17.30;8.70;;;;;;;3.75;100.00;99370.38;5027169;28;20028;-66
2022/01/20 03:48:16;;;;;;;22.02;9.85;;;;;;;3.78;100.00;99367.81;5028083;28;20428;-66
2022/01/20 03:51:01;;;;;;;19.83;9.50;;;;;;;3.83;100.00;99362.72;5029740;28;20033;-66
2022/01/20 03:53:38;;;;;;;19.17;8.60;;;;;;;3.85;100.00;99364.47;5029869;28;20052;-66
2022/01/20 03:56:04;;;;;;;16.80;8.32;;;;;;;3.86;100.00;99362.78;5029577;28;20090;-67
2022/01/20 03:58:30;;;;;;;19.60;9.20;;;;;;;3.84;100.00;99362.75;5029027;28;20025;-67
2022/01/20 04:00:56;;;;;;;22.35;9.88;;;;;;;3.81;100.00;99375.69;5028635;28;20021;-67
2022/01/20 04:03:22;;;;;;;18.02;8.45;;;;;;;3.75;100.00;99369.47;5028828;28;20018;-67
2022/01/20 04:05:57;;;;;;;17.45;8.00;;;;;;;3.77;100.00;99373.84;5028638;28;20034;-67
2022/01/20 04:08:46;;;;;;;14.90;8.32;;;;;;;3.79;100.00;99377.38;5029064;28;20022;-67
2022/01/20 04:11:21;;;;;;;15.48;8.88;;;;;;;3.82;100.00;99380.03;5028281;28;20093;-67
2022/01/20 04:13:47;;;;;;;13.63;7.40;;;;;;;3.77;100.00;99384.28;5028411;28;20037;-67
2022/01/20 04:16:33;;;;;;;15.63;8.65;;;;;;;3.72;100.00;99385.94;5027997;28;20230;-67
2022/01/20 04:18:59;;;;;;;13.90;8.02;;;;;;;3.69;100.00;99385.88;5028057;28;20026;-67
2022/01/20 04:21:30;;;;;;;15.57;7.10;;;;;;;3.59;100.00;99398.66;5028011;28;20022;-67
2022/01/20 04:23:57;;;;;;;16.00;7.82;;;;;;;3.53;100.00;99389.00;5028081;28;20037;-67
2022/01/20 04:26:23;;;;;;;13.40;6.95;;;;;;;3.37;100.00;99397.34;5028109;28;20025;-67
2022/01/20 04:28:53;;;;;;;13.85;7.70;;;;;;;3.27;100.00;99398.00;5028325;28;20034;-67
2022/01/20 04:31:20;;;;;;;16.67;8.30;;;;;;;3.11;100.00;99403.72;5028359;28;20021;-67
2022/01/20 04:33:45;;;;;;;23.20;6.85;;;;;;;2.99;100.00;99413.84;5028068;28;20041;-67
2022/01/20 04:36:11;;;;;;;17.05;8.07;;;;;;;2.87;100.00;99413.56;5027997;28;20018;-67
2022/01/20 04:38:36;;;;;;;10.57;6.10;;;;;;;2.80;100.00;99408.19;5027650;28;20077;-67
2022/01/20 04:41:02;;;;;;;13.32;6.78;;;;;;;2.73;100.00;99404.56;5027832;28;20041;-67
2022/01/20 04:43:27;;;;;;;13.60;6.80;;;;;;;2.68;100.00;99406.19;5028056;28;20036;-67
2022/01/20 04:46:07;;;;;;;14.75;6.90;;;;;;;2.65;100.00;99403.50;5028017;28;20313;-67
2022/01/20 04:59:23;;;;;;;11.23;5.47;;;;;;;2.34;100.00;99402.72;5026610;28;20205;-67
2022/01/20 05:01:48;;;;;;;17.33;5.80;;;;;;;2.23;100.00;99405.06;5031007;28;20034;-67
2022/01/20 05:04:13;;;;;;;15.02;5.72;;;;;;;2.11;100.00;99399.53;5027596;28;20077;-67
2022/01/20 05:06:41;;;;;;;10.73;5.82;;;;;;;2.05;100.00;99405.44;5027262;28;20022;-67
2022/01/20 05:09:08;;;;;;;27.08;9.05;;;;;;;2.00;100.00;99406.19;5025225;28;20110;-67
2022/01/20 05:11:36;;;;;;;14.95;6.65;;;;;;;2.00;100.00;99411.38;5027090;28;20018;-67
2022/01/20 05:14:01;;;;;;;14.25;7.40;;;;;;;1.95;100.00;99412.94;5027379;28;20032;-67
2022/01/20 05:16:27;;;;;;;20.30;6.95;;;;;;;1.91;100.00;99399.03;5026889;28;20081;-67
2022/01/20 05:18:52;;;;;;;15.70;6.90;;;;;;;1.88;100.00;99385.09;5026962;28;20026;-67
2022/01/20 05:21:18;;;;;;;20.02;7.28;;;;;;;1.85;100.00;99390.19;5026646;28;20085;-67
2022/01/20 05:23:43;;;;;;;17.58;7.32;;;;;;;1.82;100.00;99384.91;5026123;28;20026;-67
2022/01/20 05:26:09;;;;;;;21.73;8.38;;;;;;;1.79;100.00;99384.84;5025657;28;20029;-67
2022/01/20 05:28:35;;;;;;;19.10;7.03;;;;;;;1.71;100.00;99381.16;5025390;28;20049;-67
2022/01/20 05:31:00;;;;;;;21.42;6.82;;;;;;;1.75;100.00;99375.22;5025502;28;20026;-67
2022/01/20 05:33:27;;;;;;;16.00;7.80;;;;;;;1.69;100.00;99382.81;5026155;28;20249;-67
2022/01/20 05:35:52;;;;;;;16.73;7.15;;;;;;;1.68;100.00;99394.06;5026259;28;20025;-66
2022/01/20 05:38:18;;;;;;;23.60;8.32;;;;;;;1.60;100.00;99387.75;5024882;28;20089;-66
2022/01/20 05:40:45;;;;;;;18.08;6.95;;;;;;;1.50;100.00;99385.75;5025251;28;20029;-66
2022/01/20 05:43:10;;;;;;;14.18;7.07;;;;;;;1.45;100.00;99384.72;5025151;28;20053;-66
2022/01/20 05:45:36;;;;;;;19.25;7.28;;;;;;;1.48;100.00;99387.41;5025131;28;20030;-66
2022/01/20 05:48:16;;;;;;;19.48;6.97;;;;;;;1.47;100.00;99388.25;5025138;28;20344;-66
2022/01/20 05:50:45;;;;;;;17.23;8.25;;;;;;;1.50;100.00;99390.94;5025286;28;20178;-66
2022/01/20 05:53:12;;;;;;;16.83;6.32;;;;;;;1.49;100.00;99384.00;5025079;28;20025;-66
2022/01/20 05:55:37;;;;;;;15.65;8.30;;;;;;;1.42;100.00;99388.13;5025227;28;20088;-66
2022/01/20 05:58:05;;;;;;;32.92;7.88;;;;;;;1.39;100.00;99402.75;5014879;28;20314;-66
2022/01/20 06:00:33;;;;;;;18.35;7.03;;;;;;;1.41;100.00;99414.00;5019493;28;20026;-66
2022/01/20 06:06:04;;;;;;;22.23;8.82;;;;;;;1.72;100.00;99432.22;4963247;28;20290;-66
2022/01/20 06:08:30;;;;;;;14.00;7.38;;;;;;;1.75;100.00;99429.72;4963593;29;20338;-66
2022/01/20 06:10:55;;;;;;;16.50;6.78;;;;;;;1.78;100.00;99425.47;4963043;29;20038;-66
2022/01/20 06:13:21;;;;;;;19.77;8.10;;;;;;;1.78;100.00;99427.19;4963500;29;20026;-66
2022/01/20 06:15:46;;;;;;;19.25;9.75;;;;;;;1.80;100.00;99422.91;4963455;29;20027;-66
2022/01/20 06:18:12;;;;;;;23.10;7.55;;;;;;;1.80;100.00;99439.38;4963429;29;20045;-66
2022/01/20 06:20:39;;;;;;;24.50;10.02;;;;;;;1.82;100.00;99442.91;4963395;29;20038;-66
2022/01/20 06:23:06;;;;;;;17.05;7.38;;;;;;;1.79;100.00;99441.94;4963352;29;20059;-66
2022/01/20 06:25:32;;;;;;;22.40;9.10;;;;;;;1.84;100.00;99440.34;4962886;29;20058;-66
2022/01/20 06:27:58;;;;;;;38.38;10.18;;;;;;;1.90;100.00;99446.56;4963098;29;20055;-66
2022/01/20 06:30:25;;;;;;;23.85;8.55;;;;;;;1.93;100.00;99440.59;4963157;29;20039;-66
2022/01/20 06:32:51;;;;;;;18.73;8.38;;;;;;;2.01;100.00;99444.28;4963192;29;20027;-66
2022/01/20 06:35:16;;;;;;;23.00;8.27;;;;;;;2.02;100.00;99431.34;4963174;29;20361;-66
2022/01/20 06:37:42;;;;;;;14.95;7.80;;;;;;;2.08;100.00;99441.88;5016355;28;20038;-66
2022/01/20 06:40:08;;;;;;;16.77;8.48;;;;;;;2.08;100.00;99435.81;5023366;28;20036;-66
2022/01/20 06:42:34;;;;;;;16.67;7.38;;;;;;;2.16;100.00;99436.91;5023726;28;20025;-66
2022/01/20 06:44:59;;;;;;;21.10;8.60;;;;;;;2.11;100.00;99431.59;5024099;28;20049;-66
2022/01/20 06:47:25;;;;;;;22.90;8.98;;;;;;;2.15;100.00;99437.72;5023204;28;20072;-66
2022/01/20 06:49:50;;;;;;;22.45;8.73;;;;;;;2.20;100.00;99449.13;5004060;28;20023;-66
2022/01/20 06:52:15;;;;;;;22.45;8.13;;;;;;;2.29;100.00;99449.38;5003744;28;20042;-66
2022/01/20 06:54:41;;;;;;;21.02;7.53;;;;;;;2.30;100.00;99469.28;5004049;28;20276;-66
2022/01/20 06:57:06;;;;;;;19.95;7.72;;;;;;;2.32;100.00;99465.03;5004449;28;20221;-66
2022/01/20 06:59:32;;;;;;;19.50;7.03;;;;;;;2.35;100.00;99462.50;5004442;28;20093;-66
2022/01/20 07:01:57;;;;;;;20.73;6.90;;;;;;;2.40;100.00;99460.91;5004422;28;20018;-66
2022/01/20 07:04:25;;;;;;;21.30;7.75;;;;;;;2.35;100.00;99466.81;5004423;28;20221;-66
2022/01/20 07:06:51;;;;;;;17.88;8.50;;;;;;;2.42;100.00;99461.81;5004626;28;20026;-66
2022/01/20 07:09:16;;;;;;;21.73;8.75;;;;;;;2.45;100.00;99459.31;5004383;28;20168;-66
2022/01/20 07:11:42;;;;;;;15.77;7.13;;;;;;;2.48;100.00;99458.50;5004242;28;20041;-66
2022/01/20 07:14:08;;;;;;;17.92;8.23;;;;;;;2.46;100.00;99468.84;5004366;28;20053;-66
2022/01/20 07:16:34;;;;;;;11.68;6.28;;;;;;;2.52;100.00;99465.53;5004703;28;20033;-66
2022/01/20 07:18:59;;;;;;;27.17;7.45;;;;;;;2.46;100.00;99470.59;5008288;28;20029;-66
2022/01/20 07:21:25;;;;;;;17.90;7.82;;;;;;;2.53;100.00;99482.88;5008204;28;20022;-66
2022/01/20 07:23:51;;;;;;;18.17;7.38;;;;;;;2.55;100.00;99487.28;5008080;28;20322;-66
2022/01/20 07:26:16;;;;;;;19.45;7.75;;;;;;;2.54;100.00;99495.94;5008166;28;20022;-66
2022/01/20 07:28:42;;;;;;;25.10;8.18;;;;;;;2.58;100.00;99491.66;5008007;28;20034;-66
2022/01/20 07:31:08;;;;;;;21.73;7.97;;;;;;;2.58;100.00;99497.75;5008218;28;20022;-66
2022/01/20 07:33:35;;;;;;;27.38;8.98;;;;;;;2.65;100.00;99504.00;5008003;28;20214;-66
2022/01/20 07:36:01;;;;;;;23.02;8.13;;;;;;;2.57;100.00;99514.19;5007989;28;20033;-66
2022/01/20 07:38:26;;;;;;;17.98;7.95;;;;;;;2.60;100.00;99511.69;5008175;28;20026;-66
2022/01/20 07:40:52;;;;;;;22.27;7.28;;;;;;;2.58;100.00;99528.94;5007912;28;20266;-66
2022/01/20 07:43:18;;;;;;;22.67;7.57;;;;;;;2.48;100.00;99519.16;5007800;28;20022;-66
2022/01/20 07:45:44;;;;;;;19.35;7.32;;;;;;;2.43;100.00;99523.31;5008068;28;20332;-66
2022/01/20 07:48:10;;;;;;;18.88;8.30;;;;;;;2.40;100.00;99527.56;5007768;28;20026;-66
2022/01/20 07:50:35;;;;;;;16.48;7.88;;;;;;;2.37;100.00;99538.75;5007730;28;20022;-66
2022/01/20 07:53:01;;;;;;;17.33;8.45;;;;;;;2.40;100.00;99544.03;5007695;28;20022;-66
2022/01/20 07:55:26;;;;;;;22.02;8.30;;;;;;;2.52;100.00;99539.16;5007620;28;20022;-66
2022/01/20 07:57:52;;;;;;;14.02;7.47;;;;;;;2.60;100.00;99542.84;5007604;28;20026;-66
2022/01/20 08:00:18;;;;;;;26.80;8.82;;;;;;;2.68;100.00;99536.13;5007548;28;20317;-66
2022/01/20 08:02:44;;;;;;;25.13;8.07;;;;;;;2.79;100.00;99534.69;5007776;28;20026;-66
2022/01/20 08:05:09;;;;;;;22.80;8.75;;;;;;;2.81;100.00;99537.34;5007540;28;20018;-66
2022/01/20 08:07:35;;;;;;;20.15;7.90;;;;;;;2.93;100.00;99535.00;5007416;28;20221;-66
2022/01/20 08:10:00;;;;;;;19.65;7.10;;;;;;;2.97;100.00;99529.94;5007326;28;20088;-66
2022/01/20 08:12:28;;;;;;;23.33;8.80;;;;;;;3.00;100.00;99535.22;5007282;28;20026;-66
2022/01/20 08:14:54;;;;;;;18.98;6.82;;;;;;;3.09;100.00;99535.44;5007288;28;20317;-66
2022/01/20 08:17:19;;;;;;;27.48;7.63;;;;;;;3.18;100.00;99539.97;5007244;28;20026;-66
2022/01/20 08:19:45;;;;;;;29.23;8.27;;;;;;;3.01;100.00;99542.16;5007150;28;20026;-66
2022/01/20 08:22:11;;;;;;;21.55;8.60;;;;;;;3.07;100.00;99546.66;5007393;28;20340;-66
2022/01/20 08:24:37;;;;;;;24.77;6.90;;;;;;;3.01;100.00;99542.16;5007041;28;20037;-66
2022/01/20 08:27:03;;;;;;;18.23;8.27;;;;;;;3.09;100.00;99535.44;5006942;28;20054;-66
2022/01/20 08:29:28;;;;;;;19.10;6.25;;;;;;;3.19;100.00;99540.00;5006735;28;20030;-66
2022/01/20 08:31:54;;;;;;;23.60;7.65;;;;;;;3.34;100.00;99543.00;5006906;28;20056;-66
2022/01/20 08:34:19;;;;;;;14.15;6.18;;;;;;;3.38;100.00;99550.00;5006952;28;20034;-66
2022/01/20 08:36:45;;;;;;;17.80;4.85;;;;;;;3.52;100.00;99547.75;5006895;28;20026;-67
2022/01/20 08:41:55;;;;;;;26.48;7.60;;;;;;;3.77;99.37;99560.47;5006822;28;20376;-67
2022/01/20 08:44:21;;;;;;;21.33;7.18;;;;;;;3.81;99.18;99562.28;5006719;28;20042;-67
2022/01/20 08:46:47;;;;;;;17.50;6.97;;;;;;;3.85;98.95;99575.41;5006709;28;20029;-67
2022/01/20 08:49:12;;;;;;;36.95;8.85;;;;;;;3.85;98.89;99575.41;5006648;28;20022;-67
2022/01/20 08:51:39;;;;;;;17.73;6.25;;;;;;;3.84;98.72;99578.88;5006535;28;20023;-67
2022/01/20 08:54:05;;;;;;;21.73;6.80;;;;;;;3.78;99.30;99567.41;5006550;28;20022;-67
2022/01/20 08:56:30;;;;;;;17.65;7.15;;;;;;;3.79;99.05;99567.44;5006634;28;20341;-67
2022/01/20 08:58:56;;;;;;;24.35;7.65;;;;;;;3.76;99.03;99567.38;5006478;28;20058;-67
2022/01/20 09:01:21;;;;;;;14.18;6.20;;;;;;;3.74;98.93;99566.47;5006460;28;20083;-67
2022/01/20 09:03:47;;;;;;;24.63;7.03;;;;;;;3.76;98.76;99567.38;5006389;28;20022;-67
2022/01/20 09:06:13;;;;;;;26.80;8.82;;;;;;;3.72;99.00;99573.38;5006372;28;20085;-67
2022/01/20 09:08:39;;;;;;;24.52;7.50;;;;;;;3.65;99.47;99576.69;5006277;28;20033;-67
2022/01/20 09:11:16;;;;;;;19.38;7.35;;;;;;;3.73;98.78;99569.91;5006106;28;20022;-67
2022/01/20 09:16:26;;;;;;;18.73;7.80;;;;;;;3.73;99.12;99580.34;5006167;28;20033;-67
2022/01/20 09:18:51;;;;;;;17.25;7.90;;;;;;;3.81;99.40;99578.78;5006119;28;20026;-67
2022/01/20 09:21:21;;;;;;;25.00;8.65;;;;;;;3.86;99.84;99582.34;5006037;28;20018;-67
2022/01/20 09:23:46;;;;;;;16.67;8.13;;;;;;;3.92;99.18;99582.50;5006163;28;20025;-67
2022/01/20 09:26:13;;;;;;;24.20;8.20;;;;;;;3.94;99.00;99569.50;5005919;28;20022;-67
2022/01/20 09:28:38;;;;;;;18.38;7.57;;;;;;;4.00;99.37;99557.50;5005773;28;20368;-67
2022/01/20 09:31:04;;;;;;;20.33;7.47;;;;;;;4.01;99.01;99561.88;5005790;28;20049;-67
2022/01/20 09:33:29;;;;;;;19.15;8.20;;;;;;;3.98;98.99;99567.00;5005816;28;20026;-67
2022/01/20 09:35:57;;;;;;;33.00;7.60;;;;;;;3.99;98.94;99563.53;5005743;28;20028;-67
2022/01/20 09:38:22;;;;;;;21.00;7.35;;;;;;;4.02;99.22;99557.53;5005990;28;20093;-67
2022/01/20 09:40:49;;;;;;;23.00;8.07;;;;;;;4.00;99.10;99560.13;5004998;28;20090;-67
2022/01/20 09:43:15;;;;;;;21.65;7.28;;;;;;;4.01;99.03;99569.69;5005645;28;20080;-67
2022/01/20 09:45:41;;;;;;;26.08;8.10;;;;;;;4.02;98.84;99574.03;5005529;28;20326;-67
2022/01/20 09:48:09;;;;;;;22.23;8.00;;;;;;;3.99;99.00;99578.31;5005619;28;20033;-67
2022/01/20 09:50:34;;;;;;;19.13;6.38;;;;;;;4.02;98.70;99579.25;5005423;28;20022;-67
2022/01/20 09:53:01;;;;;;;22.60;7.78;;;;;;;3.98;98.71;99582.63;5005476;28;20033;-67
2022/01/20 09:55:28;;;;;;;18.65;7.40;;;;;;;4.01;98.46;99582.69;5005384;28;20034;-67
2022/01/20 09:57:54;;;;;;;17.85;5.53;;;;;;;4.10;98.81;99587.22;5005314;28;20022;-67
2022/01/20 10:00:21;;;;;;;23.27;5.88;;;;;;;4.20;99.50;99597.88;5005300;28;20245;-67
2022/01/20 10:03:06;;;;;;;16.73;6.05;;;;;;;4.26;99.20;99608.44;5005229;28;20029;-67
2022/01/20 10:05:43;;;;;;;9.32;5.00;;;;;;;4.20;98.21;99604.81;5005220;28;20033;-67
2022/01/20 10:08:24;;;;;;;15.88;5.80;;;;;;;4.35;99.01;99611.22;5005209;28;20032;-67
2022/01/20 10:10:57;;;;;;;16.88;5.95;;;;;;;4.44;97.75;99606.19;5005070;28;20129;-67
2022/01/20 10:13:27;;;;;;;25.25;6.85;;;;;;;4.57;98.17;99616.84;5005110;28;20026;-67
2022/01/20 10:16:06;;;;;;;17.35;5.28;;;;;;;4.62;97.03;99610.88;5005111;28;20030;-67
2022/01/20 10:18:34;;;;;;;19.92;5.43;;;;;;;4.63;97.96;99616.97;5005006;28;20032;-67
2022/01/20 10:21:04;;;;;;;13.38;5.47;;;;;;;4.63;97.89;99617.88;5004963;28;20029;-67
2022/01/20 10:23:40;;;;;;;16.13;4.63;;;;;;;4.73;97.57;99613.69;5004951;28;20093;-67
2022/01/20 10:26:12;;;;;;;19.70;5.05;;;;;;;4.70;97.28;99618.84;5004991;28;20036;-67
2022/01/20 10:28:54;;;;;;;12.30;5.20;;;;;;;4.82;97.00;99616.47;5004716;28;20038;-67
2022/01/20 10:31:36;;;;;;;11.93;4.85;;;;;;;4.89;96.95;99611.41;5004731;28;20073;-67
2022/01/20 10:34:04;;;;;;;11.02;4.82;;;;;;;4.90;96.61;99617.53;5004883;28;20261;-67
2022/01/20 10:36:29;;;;;;;11.32;4.78;;;;;;;4.85;97.25;99619.16;5004810;28;20253;-67
2022/01/20 10:38:58;;;;;;;16.30;4.53;;;;;;;4.89;96.64;99616.63;5004688;28;20026;-67
2022/01/20 10:41:37;;;;;;;15.23;4.78;;;;;;;4.96;96.76;99613.28;5004636;28;20029;-67
2022/01/20 10:44:07;;;;;;;15.75;5.10;;;;;;;4.95;96.56;99608.91;5004960;28;20029;-67
2022/01/20 10:46:49;;;;;;;20.40;5.45;;;;;;;4.94;96.10;99594.13;5004616;28;20022;-67
2022/01/20 10:49:15;;;;;;;10.13;4.30;;;;;;;4.96;96.03;99596.72;5004598;28;20027;-67
2022/01/20 10:51:41;;;;;;;17.63;5.38;;;;;;;4.99;95.76;99597.69;5004392;28;20034;-67
2022/01/20 10:54:10;;;;;;;17.65;4.18;;;;;;;4.95;95.60;99603.72;5004473;28;20085;-67
2022/01/20 10:57:00;;;;;;;9.10;3.70;;;;;;;5.05;95.70;99589.06;5004452;28;20022;-67
2022/01/20 10:59:26;;;;;;;19.98;3.70;;;;;;;5.12;95.10;99593.56;5004507;28;20198;-67
2022/01/20 11:02:06;;;;;;;8.02;3.50;;;;;;;5.06;94.72;99593.47;5004437;28;20049;-67
2022/01/20 11:04:34;;;;;;;16.30;4.18;;;;;;;5.07;95.04;99592.59;5004435;28;20022;-67
2022/01/20 11:07:03;;;;;;;16.73;4.00;;;;;;;5.13;95.02;99584.88;5004647;28;20030;-67
2022/01/20 11:09:32;;;;;;;11.93;3.85;;;;;;;5.20;94.96;99591.97;5008823;28;20018;-67
2022/01/20 11:11:59;;;;;;;17.77;3.22;;;;;;;5.27;94.80;99578.16;5009734;28;20054;-67
2022/01/20 11:14:25;;;;;;;11.38;3.05;;;;;;;5.37;94.01;99577.44;5009502;28;20375;-67
2022/01/20 11:16:50;;;;;;;13.75;3.72;;;;;;;5.29;94.09;99586.91;5013735;28;20018;-67
2022/01/20 11:19:15;;;;;;;15.52;3.72;;;;;;;5.33;94.00;99573.03;5012042;28;20090;-67
2022/01/20 11:21:43;;;;;;;20.30;3.67;;;;;;;5.29;94.00;99571.25;5011874;28;20077;-67
2022/01/20 11:24:20;;;;;;;11.65;3.67;;;;;;;5.23;93.09;99566.81;5011716;28;20038;-67
2022/01/20 11:26:55;;;;;;;15.73;3.22;;;;;;;5.36;93.35;99567.88;5012871;28;20028;-67
2022/01/20 11:29:23;;;;;;;7.05;2.78;;;;;;;5.45;93.32;99562.78;5011972;28;20194;-67
2022/01/20 11:31:49;;;;;;;17.98;3.88;;;;;;;5.53;93.27;99561.16;5016689;28;20053;-67
2022/01/20 11:34:17;;;;;;;13.40;2.63;;;;;;;5.44;92.94;99561.06;5022849;28;20021;-67
2022/01/20 11:36:43;;;;;;;11.82;3.15;;;;;;;5.43;92.97;99564.50;5022845;28;20068;-67
2022/01/20 11:39:10;;;;;;;9.45;2.63;;;;;;;5.35;93.11;99572.19;5022759;28;20021;-67
2022/01/20 11:41:46;;;;;;;10.48;3.05;;;;;;;5.13;93.84;99583.16;5022823;28;20022;-67
2022/01/20 11:44:19;;;;;;;10.90;3.30;;;;;;;4.79;94.22;99582.53;5022624;28;20022;-67
2022/01/20 11:46:50;;;;;;;11.63;2.25;;;;;;;4.63;93.93;99580.47;5022812;28;20270;-67
2022/01/20 11:49:18;;;;;;;3.95;1.75;;;;;;;4.84;92.79;99581.75;5022804;28;20049;-67
2022/01/20 11:51:54;;;;;;;5.60;1.80;;;;;;;4.82;93.31;99582.59;5022621;28;20056;-67
2022/01/20 11:54:33;;;;;;;7.13;2.35;;;;;;;5.01;93.89;99579.44;5022712;28;20030;-67
2022/01/20 11:57:11;;;;;;;5.82;2.10;;;;;;;5.09;93.70;99575.25;5022232;28;20026;-67
2022/01/20 11:59:44;;;;;;;5.07;2.60;;;;;;;5.15;93.28;99575.34;5022608;28;20034;-67
2022/01/20 12:02:22;;;;;;;15.15;1.90;;;;;;;5.03;90.78;99570.78;5022886;28;20077;-67
2022/01/20 12:04:51;;;;;;;11.48;3.35;;;;;;;5.09;90.77;99572.66;5026068;28;20022;-67
2022/01/20 12:07:28;;;;;;;8.20;2.45;;;;;;;4.95;90.90;99568.91;5026148;28;20037;-67
2022/01/20 12:10:14;;;;;;;12.50;5.90;;;;;;;5.06;91.34;99573.44;5025708;28;20036;-67
2022/01/20 12:12:41;;;;;;;22.30;11.70;;;;;;;5.08;90.14;99560.44;5026052;28;20042;-67
2022/01/20 12:15:10;;;;;;;130.60;60.90;;;;;;;5.04;89.96;99569.06;5026271;28;20030;-67
2022/01/20 12:17:37;;;;;;;103.78;51.72;;;;;;;5.30;90.10;99573.88;5025945;28;20032;-67
2022/01/20 12:20:04;;;;;;;21.88;7.53;;;;;;;5.55;89.84;99580.34;5026193;28;20040;-67
2022/01/20 12:22:29;;;;;;;11.98;1.85;;;;;;;5.39;86.89;99583.59;5025429;28;20061;-67
2022/01/20 12:24:57;;;;;;;8.15;1.55;;;;;;;5.23;87.13;99582.47;5025762;28;20081;-67
2022/01/20 12:27:24;;;;;;;96.35;27.92;;;;;;;5.33;86.82;99578.25;5025608;28;20083;-67
2022/01/20 12:29:50;;;;;;;37.47;12.82;;;;;;;5.20;86.04;99576.31;5025782;28;20473;-67
2022/01/20 12:32:18;;;;;;;12.38;5.35;;;;;;;5.28;85.85;99569.50;5025597;28;20067;-67
2022/01/20 12:34:55;;;;;;;9.07;1.65;;;;;;;5.18;85.74;99570.16;5025885;28;20088;-67
2022/01/20 12:37:20;;;;;;;4.43;1.65;;;;;;;4.80;88.21;99568.63;5025215;28;20036;-67
2022/01/20 12:39:46;;;;;;;37.70;15.40;;;;;;;4.84;85.40;99562.63;5025527;28;20089;-67
2022/01/20 12:42:11;;;;;;;10.98;5.00;;;;;;;5.12;85.03;99560.50;5025501;28;20081;-67
2022/01/20 12:44:50;;;;;;;11.45;1.90;;;;;;;5.01;82.31;99569.00;5022377;28;20037;-67
2022/01/20 12:47:17;;;;;;;7.30;2.65;;;;;;;5.19;82.38;99574.56;5025699;28;20024;-67
2022/01/20 12:49:52;;;;;;;5.18;1.80;;;;;;;5.22;79.73;99574.59;5025192;28;20366;-67